createdAt,value
2018-05-18T00:00:50.170Z,71.60
2018-05-18T00:03:18.037Z,71.60
2018-05-18T00:05:46.652Z,72.60
2018-05-18T00:08:15.409Z,71.20
2018-05-18T00:10:43.275Z,71.90
2018-05-18T00:13:11.033Z,73.70
2018-05-18T00:15:38.905Z,71.90
2018-05-18T00:18:08.477Z,71.20
2018-05-18T00:20:38.052Z,72.80
2018-05-18T00:23:08.601Z,73.60
2018-05-18T00:25:36.516Z,73.50
2018-05-18T00:28:04.488Z,72.30
2018-05-18T00:30:32.351Z,72.60
2018-05-18T00:33:00.320Z,73.30
2018-05-18T00:35:28.337Z,72.80
2018-05-18T00:37:56.973Z,72.80
2018-05-18T00:40:24.943Z,72.80
2018-05-18T00:42:52.810Z,72.90
2018-05-18T00:45:20.780Z,73.50
2018-05-18T00:47:48.646Z,73.50
2018-05-18T00:50:16.615Z,73.70
2018-05-18T00:52:44.583Z,73.20
2018-05-18T00:55:24.431Z,74.50
2018-05-18T00:57:52.399Z,73.40
2018-05-18T01:00:20.271Z,74.10
2018-05-18T01:02:48.236Z,74.10
2018-05-18T01:05:16.102Z,74.50
2018-05-18T01:07:44.070Z,73.10
2018-05-18T01:10:11.937Z,74.30
2018-05-18T01:12:39.804Z,74.20
2018-05-18T01:15:07.772Z,73.30
2018-05-18T01:17:35.639Z,74.50
2018-05-18T01:20:03.609Z,74.60
2018-05-18T01:22:31.475Z,74.70
2018-05-18T01:24:59.342Z,74.00
2018-05-18T01:27:28.028Z,74.60
2018-05-18T01:29:55.893Z,75.40
2018-05-18T01:32:23.760Z,73.60
2018-05-18T01:34:51.628Z,73.30
2018-05-18T01:37:19.425Z,73.60
2018-05-18T01:39:48.175Z,74.50
2018-05-18T01:42:15.939Z,74.40
2018-05-18T01:44:43.810Z,73.80
2018-05-18T01:47:11.677Z,73.40
2018-05-18T01:49:39.543Z,73.50
2018-05-18T01:52:07.338Z,72.10
2018-05-18T01:54:35.993Z,72.20
2018-05-18T01:57:03.962Z,72.20
2018-05-18T01:59:31.931Z,72.10
2018-05-18T02:01:59.724Z,71.60
2018-05-18T02:04:27.766Z,71.80
2018-05-18T02:06:55.633Z,72.10
2018-05-18T02:09:23.500Z,70.90
2018-05-18T02:11:51.367Z,72.60
2018-05-18T02:14:19.160Z,71.70
2018-05-18T02:16:47.099Z,72.60
2018-05-18T02:19:14.966Z,73.90
2018-05-18T02:21:42.832Z,73.50
2018-05-18T02:24:10.698Z,74.70
2018-05-18T02:26:38.565Z,75.50
2018-05-18T02:29:06.432Z,75.90
2018-05-18T02:31:34.299Z,76.30
2018-05-18T02:34:02.268Z,76.20
2018-05-18T02:36:30.135Z,76.00
2018-05-18T02:38:58.011Z,77.10
2018-05-18T02:41:25.869Z,77.50
2018-05-18T02:43:53.837Z,78.40
2018-05-18T02:46:21.704Z,77.20
2018-05-18T02:48:49.566Z,77.80
2018-05-18T02:51:17.538Z,76.90
2018-05-18T02:53:45.405Z,77.00
2018-05-18T02:56:13.271Z,77.50
2018-05-18T02:58:41.138Z,78.50
2018-05-18T03:01:09.005Z,78.20
2018-05-18T03:03:36.871Z,78.50
2018-05-18T03:06:04.665Z,78.00
2018-05-18T03:08:32.708Z,77.60
2018-05-18T03:11:00.507Z,76.80
2018-05-18T03:13:29.164Z,76.60
2018-05-18T03:15:57.023Z,76.40
2018-05-18T03:18:24.890Z,76.20
2018-05-18T03:20:52.756Z,75.80
2018-05-18T03:23:20.623Z,76.00
2018-05-18T03:25:48.489Z,77.00
2018-05-18T03:28:16.355Z,76.00
2018-05-18T03:30:44.221Z,76.40
2018-05-18T03:33:12.089Z,77.20
2018-05-18T03:35:39.954Z,76.40
2018-05-18T03:38:07.709Z,76.70
2018-05-18T03:40:35.586Z,76.70
2018-05-18T03:43:03.454Z,76.70
2018-05-18T03:45:31.319Z,76.00
2018-05-18T03:47:59.186Z,76.30
2018-05-18T03:50:27.049Z,76.50
2018-05-18T03:52:54.919Z,74.30
2018-05-18T03:55:22.785Z,76.10
2018-05-18T03:57:50.652Z,75.90
2018-05-18T04:00:18.550Z,76.40
2018-05-18T04:02:59.188Z,75.50
2018-05-18T04:05:39.646Z,76.10
2018-05-18T04:08:19.393Z,76.10
2018-05-18T04:10:47.258Z,76.80
2018-05-18T04:13:15.128Z,75.70
2018-05-18T04:15:42.996Z,75.10
2018-05-18T04:18:11.680Z,74.30
2018-05-18T04:20:39.646Z,74.30
2018-05-18T04:23:07.513Z,75.50
2018-05-18T04:25:35.381Z,76.00
2018-05-18T04:28:03.246Z,74.80
2018-05-18T04:30:31.126Z,76.00
2018-05-18T04:32:59.794Z,77.00
2018-05-18T04:35:27.665Z,77.00
2018-05-18T04:37:55.530Z,76.40
2018-05-18T04:40:23.398Z,76.90
2018-05-18T04:42:51.193Z,77.30
2018-05-18T04:45:19.131Z,78.40
2018-05-18T04:47:46.997Z,78.60
2018-05-18T04:50:14.867Z,78.30
2018-05-18T04:52:42.731Z,77.90
2018-05-18T04:55:10.598Z,77.30
2018-05-18T04:57:38.466Z,76.20
2018-05-18T05:00:06.360Z,77.20
2018-05-18T05:02:35.016Z,77.90
2018-05-18T05:05:02.985Z,77.90
2018-05-18T05:07:30.851Z,77.20
2018-05-18T05:09:58.717Z,77.40
2018-05-18T05:12:26.584Z,78.10
2018-05-18T05:14:54.451Z,76.60
2018-05-18T05:17:22.317Z,75.60
2018-05-18T05:19:50.184Z,74.80
2018-05-18T05:22:18.051Z,76.40
2018-05-18T05:24:45.845Z,75.00
2018-05-18T05:27:14.500Z,76.00
2018-05-18T05:29:42.367Z,75.70
2018-05-18T05:32:10.161Z,75.70
2018-05-18T05:34:39.534Z,75.40
2018-05-18T05:37:07.400Z,75.30
2018-05-18T05:39:35.267Z,74.70
2018-05-18T05:42:03.236Z,75.00
2018-05-18T05:44:31.102Z,74.90
2018-05-18T05:46:59.043Z,74.30
2018-05-18T05:49:27.655Z,73.40
2018-05-18T05:51:55.449Z,73.50
2018-05-18T05:54:24.105Z,74.10
2018-05-18T05:56:51.972Z,74.10
2018-05-18T05:59:19.764Z,69.80
2018-05-18T06:01:47.704Z,70.10
2018-05-18T06:04:15.570Z,71.70
2018-05-18T06:06:43.365Z,71.50
2018-05-18T06:09:11.410Z,68.70
2018-05-18T06:11:40.198Z,70.60
2018-05-18T06:14:08.163Z,70.50
2018-05-18T06:16:36.030Z,70.20
2018-05-18T06:19:03.999Z,67.80
2018-05-18T06:21:31.792Z,67.70
2018-05-18T06:23:59.662Z,68.10
2018-05-18T06:26:27.598Z,68.60
2018-05-18T06:28:55.393Z,71.80
2018-05-18T06:31:23.231Z,71.00
2018-05-18T06:33:52.194Z,68.40
2018-05-18T06:36:20.090Z,70.90
2018-05-18T06:38:47.957Z,69.70
2018-05-18T06:41:15.865Z,69.40
2018-05-18T06:43:44.508Z,68.90
2018-05-18T06:46:12.479Z,68.80
2018-05-18T06:48:40.346Z,68.70
2018-05-18T06:51:08.208Z,68.50
2018-05-18T06:53:36.075Z,66.30
2018-05-18T06:56:04.048Z,66.60
2018-05-18T06:58:31.910Z,66.00
2018-05-18T07:00:59.879Z,65.40
2018-05-18T07:03:28.565Z,62.40
2018-05-18T07:05:56.430Z,62.30
2018-05-18T07:08:24.224Z,56.80
2018-05-18T07:10:52.164Z,55.50
2018-05-18T07:13:20.031Z,54.70
2018-05-18T07:15:47.897Z,53.40
2018-05-18T07:18:15.764Z,56.40
2018-05-18T07:20:43.631Z,55.10
2018-05-18T07:23:11.500Z,55.90
2018-05-18T07:25:39.364Z,53.80
2018-05-18T07:28:07.160Z,52.50
2018-05-18T07:30:35.740Z,48.50
2018-05-18T07:33:04.397Z,45.90
2018-05-18T07:35:32.264Z,45.90
2018-05-18T07:38:00.056Z,44.10
2018-05-18T07:40:28.022Z,44.60
2018-05-18T07:42:56.076Z,45.10
2018-05-18T07:45:24.037Z,41.40
2018-05-18T07:47:51.904Z,40.10
2018-05-18T07:50:19.766Z,37.40
2018-05-18T07:52:47.637Z,38.20
2018-05-18T07:55:15.430Z,35.90
2018-05-18T07:57:43.298Z,35.50
2018-05-18T08:00:11.237Z,33.90
2018-05-18T08:02:39.104Z,34.60
2018-05-18T08:05:07.072Z,34.90
2018-05-18T08:07:34.939Z,35.20
2018-05-18T08:10:02.806Z,32.10
2018-05-18T08:12:30.674Z,32.80
2018-05-18T08:14:58.603Z,32.50
2018-05-18T08:17:27.328Z,32.70
2018-05-18T08:19:55.121Z,32.70
2018-05-18T08:22:23.098Z,30.50
2018-05-18T08:24:51.747Z,30.70
2018-05-18T08:27:23.613Z,30.70
2018-05-18T08:29:51.473Z,31.70
2018-05-18T08:32:19.339Z,32.20
2018-05-18T08:34:47.206Z,32.60
2018-05-18T08:37:15.072Z,31.60
2018-05-18T08:39:43.043Z,30.40
2018-05-18T08:42:10.908Z,31.40
2018-05-18T08:44:38.776Z,30.40
2018-05-18T08:47:06.642Z,32.30
2018-05-18T08:49:34.509Z,32.30
2018-05-18T08:52:02.376Z,30.80
2018-05-18T08:54:30.243Z,32.10
2018-05-18T08:56:58.108Z,32.60
2018-05-18T08:59:25.972Z,32.50
2018-05-18T09:01:53.841Z,33.00
2018-05-18T09:04:21.708Z,33.20
2018-05-18T09:06:49.677Z,33.70
2018-05-18T09:09:17.481Z,33.40
2018-05-18T09:11:46.229Z,32.40
2018-05-18T09:14:14.096Z,32.30
2018-05-18T09:16:41.962Z,31.30
2018-05-18T09:19:09.731Z,32.20
2018-05-18T09:21:37.594Z,32.70
2018-05-18T09:24:05.464Z,30.70
2018-05-18T09:26:33.351Z,31.50
2018-05-18T09:29:02.012Z,30.20
2018-05-18T09:31:29.981Z,30.20
2018-05-18T09:33:57.791Z,30.00
2018-05-18T09:36:26.357Z,34.30
2018-05-18T09:38:54.194Z,34.30
2018-05-18T09:41:22.061Z,35.20
2018-05-18T09:43:49.857Z,33.10
2018-05-18T09:46:18.511Z,35.40
2018-05-18T09:48:46.479Z,36.00
2018-05-18T09:51:14.244Z,36.80
2018-05-18T09:53:42.111Z,37.60
2018-05-18T09:56:10.079Z,36.30
2018-05-18T09:58:37.949Z,36.80
2018-05-18T10:01:05.813Z,37.50
2018-05-18T10:03:34.131Z,36.10
2018-05-18T10:06:02.877Z,35.10
2018-05-18T10:08:30.805Z,35.10
2018-05-18T10:10:58.712Z,35.40
2018-05-18T10:13:26.580Z,35.60
2018-05-18T10:15:54.445Z,37.10
2018-05-18T10:18:22.308Z,36.80
2018-05-18T10:20:50.281Z,35.00
2018-05-18T10:23:18.147Z,34.90
2018-05-18T10:25:46.016Z,34.10
2018-05-18T10:28:13.982Z,36.30
2018-05-18T10:30:41.849Z,37.20
2018-05-18T10:33:09.715Z,36.40
2018-05-18T10:35:37.579Z,37.60
2018-05-18T10:38:05.448Z,38.60
2018-05-18T10:40:33.315Z,37.60
2018-05-18T10:43:01.182Z,40.20
2018-05-18T10:45:29.104Z,39.70
2018-05-18T10:47:57.734Z,41.30
2018-05-18T10:50:25.707Z,41.30
2018-05-18T10:52:53.774Z,41.80
2018-05-18T10:55:21.568Z,41.50
2018-05-18T10:57:49.437Z,41.30
2018-05-18T11:00:18.091Z,42.90
2018-05-18T11:02:45.884Z,42.80
2018-05-18T11:05:13.723Z,42.60
2018-05-18T11:07:42.407Z,42.30
2018-05-18T11:10:10.205Z,42.30
2018-05-18T11:12:38.143Z,42.90
2018-05-18T11:15:06.008Z,42.70
2018-05-18T11:17:33.875Z,43.10
2018-05-18T11:20:01.710Z,43.20
2018-05-18T11:22:29.608Z,42.70
2018-05-18T11:24:57.472Z,43.00
2018-05-18T11:27:25.343Z,43.80
2018-05-18T11:29:53.208Z,44.40
2018-05-18T11:32:21.002Z,44.10
2018-05-18T11:34:48.939Z,44.30
2018-05-18T11:37:16.806Z,44.50
2018-05-18T11:39:44.671Z,44.00
2018-05-18T11:42:12.539Z,42.50
2018-05-18T11:44:40.405Z,42.10
2018-05-18T11:47:08.171Z,44.20
2018-05-18T11:49:36.036Z,44.40
2018-05-18T11:52:04.008Z,44.50
2018-05-18T11:54:31.872Z,44.30
2018-05-18T11:56:59.841Z,44.00
2018-05-18T11:59:27.707Z,44.10
2018-05-18T12:01:55.575Z,43.80
2018-05-18T12:04:23.443Z,43.50
2018-05-18T12:06:51.307Z,42.90
2018-05-18T12:09:19.175Z,43.00
2018-05-18T12:11:47.043Z,44.00
2018-05-18T12:14:14.907Z,43.50
2018-05-18T12:16:42.776Z,43.70
2018-05-18T12:19:11.463Z,44.00
2018-05-18T12:21:39.370Z,44.00
2018-05-18T12:24:08.020Z,45.20
2018-05-18T12:26:35.878Z,45.20
2018-05-18T12:29:03.847Z,44.60
2018-05-18T12:31:35.116Z,45.60
2018-05-18T12:34:03.764Z,44.60
2018-05-18T12:36:34.252Z,45.20
2018-05-18T12:39:04.171Z,45.90
2018-05-18T12:41:34.118Z,45.80
2018-05-18T12:44:05.104Z,46.30
2018-05-18T12:46:33.864Z,45.40
2018-05-18T12:49:01.730Z,45.40
2018-05-18T12:51:29.703Z,47.00
2018-05-18T12:53:57.672Z,47.10
2018-05-18T12:56:26.355Z,47.20
2018-05-18T12:58:54.323Z,47.20
2018-05-18T13:01:22.292Z,48.30
2018-05-18T13:03:50.158Z,47.50
2018-05-18T13:06:18.008Z,47.60
2018-05-18T13:08:45.893Z,47.00
2018-05-18T13:11:13.757Z,47.40
2018-05-18T13:13:41.628Z,48.20
2018-05-18T13:16:09.416Z,47.70
2018-05-18T13:18:37.255Z,48.10
2018-05-18T13:21:05.120Z,47.90
2018-05-18T13:23:32.988Z,47.60
2018-05-18T13:26:00.850Z,48.10
2018-05-18T13:28:28.721Z,48.30
2018-05-18T13:30:56.588Z,48.80
2018-05-18T13:33:24.658Z,48.80
2018-05-18T13:35:52.527Z,49.10
2018-05-18T13:38:20.317Z,49.30
2018-05-18T13:40:48.258Z,49.40
2018-05-18T13:43:16.052Z,48.70
2018-05-18T13:45:43.994Z,49.70
2018-05-18T13:48:11.863Z,48.80
2018-05-18T13:50:39.725Z,48.90
2018-05-18T13:53:07.691Z,49.40
2018-05-18T13:55:35.562Z,50.00
2018-05-18T13:58:03.529Z,49.10
2018-05-18T14:00:31.294Z,48.50
2018-05-18T14:02:59.160Z,49.40
2018-05-18T14:05:27.034Z,50.10
2018-05-18T14:07:54.896Z,49.50
2018-05-18T14:10:22.861Z,49.50
2018-05-18T14:12:50.728Z,49.00
2018-05-18T14:15:18.519Z,50.00
2018-05-18T14:17:46.284Z,50.00
2018-05-18T14:20:14.225Z,49.50
2018-05-18T14:22:42.092Z,50.00
2018-05-18T14:25:09.954Z,48.50
2018-05-18T14:27:37.927Z,49.50
2018-05-18T14:30:05.897Z,48.10
2018-05-18T14:32:33.689Z,47.80
2018-05-18T14:35:01.454Z,48.70
2018-05-18T14:37:29.292Z,49.40
2018-05-18T14:39:57.158Z,48.80
2018-05-18T14:42:25.028Z,48.70
2018-05-18T14:44:52.891Z,49.70
2018-05-18T14:47:20.757Z,48.60
2018-05-18T14:49:48.630Z,48.30
2018-05-18T14:52:16.491Z,48.30
2018-05-18T14:54:44.357Z,48.30
2018-05-18T14:57:13.043Z,48.10
2018-05-18T14:59:40.807Z,48.10
2018-05-18T15:02:08.674Z,49.00
2018-05-18T15:04:36.540Z,47.20
2018-05-18T15:07:04.408Z,47.40
2018-05-18T15:09:32.273Z,47.10
2018-05-18T15:12:00.208Z,48.30
2018-05-18T15:14:28.928Z,48.80
2018-05-18T15:16:56.740Z,48.80
2018-05-18T15:19:25.378Z,49.40
2018-05-18T15:21:53.244Z,49.30
2018-05-18T15:24:21.213Z,48.90
2018-05-18T15:26:49.081Z,49.10
2018-05-18T15:29:16.946Z,49.60
2018-05-18T15:31:44.806Z,50.60
2018-05-18T15:34:12.782Z,51.10
2018-05-18T15:36:40.648Z,52.10
2018-05-18T15:39:08.515Z,51.90
2018-05-18T15:41:36.381Z,50.40
2018-05-18T15:44:04.171Z,50.40
2018-05-18T15:46:32.012Z,49.90
2018-05-18T15:48:59.881Z,49.30
2018-05-18T15:51:27.745Z,49.40
2018-05-18T15:53:55.538Z,49.50
2018-05-18T15:56:24.195Z,49.40
2018-05-18T15:58:52.061Z,49.40
2018-05-18T16:01:19.928Z,49.40
2018-05-18T16:03:47.681Z,50.00
2018-05-18T16:06:15.433Z,49.40
2018-05-18T16:08:43.228Z,49.80
2018-05-18T16:11:11.087Z,49.30
2018-05-18T16:13:38.954Z,50.30
2018-05-18T16:16:06.757Z,50.50
2018-05-18T16:18:35.281Z,50.30
2018-05-18T16:21:03.044Z,49.60
2018-05-18T16:23:30.856Z,49.50
2018-05-18T16:25:58.609Z,50.20
2018-05-18T16:28:26.357Z,51.30
2018-05-18T16:30:54.124Z,51.40
2018-05-18T16:33:22.698Z,50.30
2018-05-18T16:35:50.637Z,50.30
2018-05-18T16:38:18.991Z,49.60
2018-05-18T16:40:47.524Z,49.30
2018-05-18T16:43:15.283Z,49.30
2018-05-18T16:45:43.597Z,49.70
2018-05-18T16:48:11.955Z,49.80
2018-05-18T16:50:39.667Z,49.80
2018-05-18T16:53:08.185Z,49.70
2018-05-18T16:55:35.944Z,49.70
2018-05-18T16:58:03.729Z,49.70
2018-05-18T17:00:31.501Z,49.80
2018-05-18T17:02:59.371Z,50.00
2018-05-18T17:05:27.266Z,50.30
2018-05-18T17:07:55.837Z,50.40
2018-05-18T17:10:23.609Z,50.30
2018-05-18T17:12:52.125Z,51.80
2018-05-18T17:15:20.113Z,51.70
2018-05-18T17:17:48.912Z,52.50
2018-05-18T17:20:17.391Z,52.50
2018-05-18T17:22:45.143Z,52.00
2018-05-18T17:25:13.023Z,52.30
2018-05-18T17:27:41.810Z,53.10
2018-05-18T17:30:10.082Z,54.00
2018-05-18T17:32:38.170Z,58.50
2018-05-18T17:35:05.929Z,58.60
2018-05-18T17:37:33.684Z,60.60
2018-05-18T17:40:01.434Z,60.60
2018-05-18T17:42:29.742Z,60.70
2018-05-18T17:44:57.817Z,61.20
2018-05-18T17:47:25.874Z,60.60
2018-05-18T17:49:54.683Z,60.90
2018-05-18T17:52:23.017Z,60.90
2018-05-18T17:54:50.920Z,60.90
2018-05-18T17:57:19.570Z,59.90
2018-05-18T17:59:47.457Z,59.90
2018-05-18T18:02:15.209Z,59.40
2018-05-18T18:04:42.984Z,60.50
2018-05-18T18:07:10.951Z,59.30
2018-05-18T18:09:39.529Z,58.90
2018-05-18T18:12:07.451Z,58.90
2018-05-18T18:14:36.592Z,57.20
2018-05-18T18:17:04.814Z,57.10
2018-05-18T18:19:33.333Z,56.20
2018-05-18T18:22:01.490Z,56.20
2018-05-18T18:24:29.398Z,59.40
2018-05-18T18:26:57.188Z,60.60
2018-05-18T18:29:26.462Z,57.40
2018-05-18T18:31:54.256Z,57.40
2018-05-18T18:34:22.126Z,57.70
2018-05-18T18:36:50.778Z,58.70
2018-05-18T18:39:18.533Z,58.30
2018-05-18T18:41:46.409Z,59.60
2018-05-18T18:44:14.164Z,58.80
2018-05-18T18:46:42.025Z,58.80
2018-05-18T18:49:09.888Z,58.80
2018-05-18T18:51:37.629Z,59.30
2018-05-18T18:54:05.383Z,57.90
2018-05-18T18:56:34.106Z,57.60
2018-05-18T18:59:01.938Z,57.60
2018-05-18T19:01:30.448Z,58.10
2018-05-18T19:03:58.197Z,58.10
2018-05-18T19:06:25.958Z,57.20
2018-05-18T19:08:53.701Z,57.10
2018-05-18T19:11:22.223Z,57.70
2018-05-18T19:13:49.972Z,57.60
2018-05-18T19:16:17.734Z,56.40
2018-05-18T19:18:45.910Z,57.60
2018-05-18T19:21:13.970Z,57.90
2018-05-18T19:23:41.720Z,58.60
2018-05-18T19:26:10.364Z,59.90
2018-05-18T19:28:38.228Z,59.90
2018-05-18T19:31:06.023Z,59.50
2018-05-18T19:33:33.811Z,61.00
2018-05-18T19:36:02.352Z,59.20
2018-05-18T19:38:30.103Z,59.10
2018-05-18T19:40:57.849Z,60.70
2018-05-18T19:43:25.599Z,62.00
2018-05-18T19:45:53.344Z,61.60
2018-05-18T19:48:21.876Z,59.60
2018-05-18T19:50:49.758Z,59.60
2018-05-18T19:53:17.677Z,58.90
2018-05-18T19:55:45.818Z,60.10
2018-05-18T19:58:13.581Z,60.50
2018-05-18T20:00:41.329Z,59.80
2018-05-18T20:03:09.089Z,58.40
2018-05-18T20:05:36.835Z,59.60
2018-05-18T20:08:05.008Z,59.80
2018-05-18T20:10:32.758Z,59.40
2018-05-18T20:13:00.706Z,59.60
2018-05-18T20:15:29.464Z,59.00
2018-05-18T20:17:57.213Z,60.50
2018-05-18T20:20:25.316Z,62.10
2018-05-18T20:22:54.705Z,59.30
2018-05-18T20:25:23.151Z,59.30
2018-05-18T20:27:50.990Z,59.80
2018-05-18T20:30:18.764Z,61.50
2018-05-18T20:32:47.166Z,60.50
2018-05-18T20:35:14.912Z,60.00
2018-05-18T20:37:42.658Z,61.00
2018-05-18T20:40:10.653Z,61.30
2018-05-18T20:42:38.417Z,60.60
2018-05-18T20:45:06.271Z,59.70
2018-05-18T20:47:34.769Z,59.90
2018-05-18T20:50:02.525Z,59.90
2018-05-18T20:52:30.277Z,60.70
2018-05-18T20:54:58.024Z,59.30
2018-05-18T20:57:25.789Z,59.40
2018-05-18T20:59:53.638Z,59.00
2018-05-18T21:02:22.176Z,60.90
2018-05-18T21:04:49.929Z,60.90
2018-05-18T21:07:17.698Z,59.80
2018-05-18T21:09:45.446Z,59.60
2018-05-18T21:12:13.208Z,60.30
2018-05-18T21:14:40.958Z,59.80
2018-05-18T21:17:08.716Z,59.10
2018-05-18T21:19:37.246Z,59.40
2018-05-18T21:22:05.000Z,59.40
2018-05-18T21:24:32.752Z,60.20
2018-05-18T21:27:00.501Z,60.10
2018-05-18T21:29:28.249Z,59.50
2018-05-18T21:31:56.769Z,60.10
2018-05-18T21:34:24.579Z,60.10
2018-05-18T21:36:53.126Z,58.80
2018-05-18T21:39:20.875Z,58.80
2018-05-18T21:41:48.629Z,59.60
2018-05-18T21:44:16.386Z,59.10
2018-05-18T21:46:44.137Z,58.80
2018-05-18T21:49:12.055Z,58.40
2018-05-18T21:51:39.919Z,58.40
2018-05-18T21:54:07.890Z,58.60
2018-05-18T21:56:35.752Z,58.30
2018-05-18T21:59:03.618Z,58.50
2018-05-18T22:01:31.485Z,58.90
2018-05-18T22:03:59.357Z,59.20
2018-05-18T22:06:27.264Z,60.00
2018-05-18T22:08:55.904Z,60.10
2018-05-18T22:11:23.778Z,60.10
2018-05-18T22:13:52.381Z,61.20
2018-05-18T22:16:20.425Z,60.90
2018-05-18T22:18:48.394Z,61.00
2018-05-18T22:21:16.261Z,60.40
2018-05-18T22:23:44.010Z,62.00
2018-05-18T22:26:11.764Z,62.50
2018-05-18T22:28:39.517Z,61.80
2018-05-18T22:31:07.265Z,61.50
2018-05-18T22:33:35.772Z,62.20
2018-05-18T22:36:03.529Z,62.20
2018-05-18T22:38:31.273Z,61.00
2018-05-18T22:40:59.799Z,60.10
2018-05-18T22:43:27.543Z,60.00
2018-05-18T22:45:55.293Z,62.30
2018-05-18T22:48:23.054Z,61.70
2018-05-18T22:50:51.584Z,61.50
2018-05-18T22:53:19.345Z,61.50
2018-05-18T22:55:47.130Z,64.00
2018-05-18T22:58:14.880Z,62.30
2018-05-18T23:00:42.634Z,63.40
2018-05-18T23:03:10.399Z,63.30
2018-05-18T23:05:38.158Z,62.40
2018-05-18T23:08:05.908Z,62.40
2018-05-18T23:10:33.668Z,63.20
2018-05-18T23:13:01.457Z,61.30
2018-05-18T23:15:29.213Z,63.30
2018-05-18T23:17:56.961Z,64.10
2018-05-18T23:20:24.713Z,61.00
2018-05-18T23:22:52.546Z,62.30
2018-05-18T23:25:21.069Z,62.30
2018-05-18T23:27:48.819Z,62.20
2018-05-18T23:30:16.562Z,61.70
2018-05-18T23:32:45.079Z,60.40
2018-05-18T23:35:12.837Z,60.20
2018-05-18T23:37:40.668Z,61.30
2018-05-18T23:40:09.321Z,61.80
2018-05-18T23:42:37.685Z,61.30
2018-05-18T23:45:06.497Z,61.50
2018-05-18T23:47:34.383Z,61.10
2018-05-18T23:50:03.040Z,61.30
2018-05-18T23:52:30.908Z,61.30
2018-05-18T23:54:58.773Z,62.00
2018-05-18T23:57:26.743Z,62.10
2018-05-18T23:59:55.529Z,62.90
